Time;durP1;ratioP1;P1;durP2;ratioP2;P2;SDS_P1;SDS_P2;PMS_P1;PMS_P2;Temp;Humidity;BMP_temperature;BMP_pressure;BME280_temperature;BME280_humidity;BME280_pressure;Samples;Min_cycle;Max_cycle;Signal;HPM_P1;HPM_P2
2022/03/28 00:00:51;;;;;;;160.00;54.20;;;;;;;-0.34;53.04;99669.11;108007;1279;22565;-69
2022/03/28 00:03:18;;;;;;;151.60;55.40;;;;;;;-0.33;53.06;99664.83;107906;1279;22562;-70
2022/03/28 00:05:45;;;;;;;138.90;53.00;;;;;;;-0.31;52.88;99660.88;108003;1279;25489;-69
2022/03/28 00:08:12;;;;;;;147.90;52.30;;;;;;;-0.31;52.80;99655.23;107994;1279;22617;-69
2022/03/28 00:10:39;;;;;;;147.20;53.30;;;;;;;-0.30;52.57;99657.80;108017;1279;24685;-69
2022/03/28 00:13:06;;;;;;;140.60;52.50;;;;;;;-0.32;52.44;99661.92;108036;1279;22703;-72
2022/03/28 00:15:33;;;;;;;148.40;52.70;;;;;;;-0.36;52.72;99659.89;108044;1279;22693;-69
2022/03/28 00:18:01;;;;;;;167.20;56.60;;;;;;;-0.41;53.21;99658.53;108015;1279;22689;-81
2022/03/28 00:20:28;;;;;;;221.80;69.80;;;;;;;-0.43;52.69;99658.89;107992;1279;22606;-72
2022/03/28 00:22:55;;;;;;;220.10;70.50;;;;;;;-0.46;52.43;99655.33;108023;1278;22549;-69
2022/03/28 00:25:22;;;;;;;178.40;59.90;;;;;;;-0.48;52.40;99655.84;108003;1279;25306;-69
2022/03/28 00:27:49;;;;;;;167.10;59.80;;;;;;;-0.50;52.53;99657.04;108020;1279;22627;-69
2022/03/28 00:30:16;;;;;;;168.20;60.30;;;;;;;-0.52;52.65;99658.40;108013;1279;25334;-70
2022/03/28 00:32:43;;;;;;;167.60;57.60;;;;;;;-0.52;52.58;99656.52;108029;1279;22562;-69
2022/03/28 00:35:10;;;;;;;137.40;53.50;;;;;;;-0.51;52.61;99649.68;108011;1279;25437;-69
2022/03/28 00:37:39;;;;;;;134.80;51.70;;;;;;;-0.52;52.72;99642.66;108023;1276;24394;-69
2022/03/28 00:40:09;;;;;;;135.60;53.40;;;;;;;-0.51;52.91;99642.48;108032;1279;22583;-70
2022/03/28 00:42:37;;;;;;;139.80;52.10;;;;;;;-0.51;52.87;99645.91;108008;1279;22543;-69
2022/03/28 00:45:06;;;;;;;136.20;52.50;;;;;;;-0.52;52.88;99651.23;108021;1279;22558;-70
2022/03/28 00:47:33;;;;;;;134.50;48.40;;;;;;;-0.56;53.52;99648.01;108061;1279;22623;-71
2022/03/28 00:50:01;;;;;;;148.30;52.90;;;;;;;-0.54;53.31;99646.29;108030;1279;22543;-69
2022/03/28 00:52:28;;;;;;;154.30;58.80;;;;;;;-0.52;54.15;99648.82;108033;1279;22574;-69
2022/03/28 00:54:58;;;;;;;170.70;61.00;;;;;;;-0.53;55.30;99645.23;108030;1279;25347;-69
2022/03/28 00:57:25;;;;;;;162.00;54.90;;;;;;;-0.55;55.39;99641.16;108109;1279;22563;-70
2022/03/28 00:59:52;;;;;;;161.80;57.00;;;;;;;-0.57;55.56;99638.93;108054;1279;22742;-69
2022/03/28 01:02:19;;;;;;;144.70;55.70;;;;;;;-0.59;55.03;99637.74;108058;1279;22672;-68
2022/03/28 01:04:46;;;;;;;143.80;54.90;;;;;;;-0.60;55.32;99631.08;108027;1279;23202;-68
2022/03/28 01:07:13;;;;;;;149.60;56.00;;;;;;;-0.62;55.08;99627.48;108029;1279;22662;-69
2022/03/28 01:09:40;;;;;;;156.20;57.80;;;;;;;-0.64;55.09;99625.96;108062;1279;22770;-69
2022/03/28 01:12:10;;;;;;;150.90;59.20;;;;;;;-0.67;54.86;99620.33;108021;1279;22813;-69
2022/03/28 01:14:38;;;;;;;148.40;57.80;;;;;;;-0.71;54.62;99622.56;108035;1279;24216;-69
2022/03/28 01:19:55;;;;;;;168.60;60.20;;;;;;;-0.81;55.02;99615.77;108022;1279;22592;-70
2022/03/28 01:22:22;;;;;;;153.60;56.70;;;;;;;-0.85;54.23;99603.64;108038;1279;22541;-69
2022/03/28 01:24:49;;;;;;;163.00;58.50;;;;;;;-0.88;54.67;99601.77;108023;1279;22540;-69
2022/03/28 01:27:16;;;;;;;143.80;55.80;;;;;;;-0.92;55.16;99594.44;108042;1279;22620;-69
2022/03/28 01:29:44;;;;;;;155.60;57.70;;;;;;;-0.96;55.17;99589.83;108050;1278;22723;-69
2022/03/28 01:32:11;;;;;;;160.30;59.40;;;;;;;-0.99;54.45;99589.50;107897;1279;22561;-69
2022/03/28 01:34:38;;;;;;;138.80;53.60;;;;;;;-1.03;54.33;99588.14;107959;1279;22685;-69
2022/03/28 01:37:05;;;;;;;147.50;54.00;;;;;;;-1.04;54.90;99585.92;107917;1279;22584;-69
2022/03/28 01:39:32;;;;;;;134.90;51.50;;;;;;;-1.05;55.99;99587.30;107930;1279;22750;-69
2022/03/28 01:41:59;;;;;;;166.20;59.20;;;;;;;-1.05;57.11;99586.27;107970;1279;22544;-70
2022/03/28 01:44:26;;;;;;;186.80;65.50;;;;;;;-1.07;57.13;99583.20;107923;1279;24429;-70
2022/03/28 01:46:53;;;;;;;192.20;69.40;;;;;;;-1.08;57.04;99580.65;107926;1279;22548;-70
2022/03/28 01:49:21;;;;;;;192.10;71.80;;;;;;;-1.09;56.70;99578.27;107930;1279;22547;-70
2022/03/28 01:51:50;;;;;;;190.50;71.90;;;;;;;-1.09;56.64;99576.21;107972;1279;22606;-69
2022/03/28 01:54:18;;;;;;;189.80;71.00;;;;;;;-1.10;56.50;99575.52;107956;1279;24260;-70
2022/03/28 01:56:45;;;;;;;185.30;70.80;;;;;;;-1.12;56.56;99574.51;107715;1279;263971;-84
2022/03/28 01:59:12;;;;;;;195.30;70.90;;;;;;;-1.14;56.12;99572.45;107976;1279;22546;-70
2022/03/28 02:01:39;;;;;;;177.50;65.70;;;;;;;-1.16;56.16;99570.75;107934;1279;22562;-70
2022/03/28 02:04:06;;;;;;;163.70;62.50;;;;;;;-1.17;56.19;99569.57;107916;1279;22602;-70
2022/03/28 02:06:34;;;;;;;153.10;58.20;;;;;;;-1.17;55.99;99571.97;107915;1279;22552;-69
2022/03/28 02:09:02;;;;;;;132.40;52.00;;;;;;;-1.16;56.14;99569.04;108228;1279;24380;-72
2022/03/28 02:11:30;;;;;;;130.40;50.40;;;;;;;-1.16;56.79;99570.91;108224;1279;22617;-71
2022/03/28 02:13:58;;;;;;;141.30;50.00;;;;;;;-1.17;56.84;99566.33;108255;1279;22560;-72
2022/03/28 02:16:25;;;;;;;133.20;49.80;;;;;;;-1.18;57.20;99563.08;108279;1279;22590;-71
2022/03/28 02:18:51;;;;;;;130.70;53.70;;;;;;;-1.19;56.91;99558.63;108284;1279;22674;-75
2022/03/28 02:21:18;;;;;;;134.90;52.50;;;;;;;-1.20;56.66;99557.43;108249;1279;22996;-70
2022/03/28 02:23:45;;;;;;;120.70;49.70;;;;;;;-1.18;56.45;99553.85;108247;1279;22650;-70
2022/03/28 02:26:14;;;;;;;141.80;53.70;;;;;;;-1.17;57.48;99551.27;108212;1279;22633;-70
2022/03/28 02:28:41;;;;;;;149.10;56.80;;;;;;;-1.18;58.30;99545.64;108220;1279;22632;-70
2022/03/28 02:31:10;;;;;;;148.90;58.30;;;;;;;-1.21;58.62;99543.94;108305;1279;22558;-69
2022/03/28 02:33:37;;;;;;;193.90;73.50;;;;;;;-1.25;58.43;99544.11;108305;1279;22553;-70
2022/03/28 02:36:04;;;;;;;234.70;97.10;;;;;;;-1.28;58.12;99545.16;108329;1279;22712;-70
2022/03/28 02:38:32;;;;;;;244.90;91.40;;;;;;;-1.32;57.98;99543.10;108319;1279;22591;-70
2022/03/28 02:40:59;;;;;;;214.90;84.80;;;;;;;-1.36;58.56;99538.18;108311;1279;22570;-70
2022/03/28 02:43:27;;;;;;;210.40;81.40;;;;;;;-1.37;58.18;99532.20;108293;1279;22618;-70
2022/03/28 02:45:54;;;;;;;191.30;77.40;;;;;;;-1.39;57.93;99532.71;108309;1279;22577;-69
2022/03/28 02:48:21;;;;;;;200.90;78.40;;;;;;;-1.42;57.60;99531.67;108288;1279;22694;-70
2022/03/28 02:50:49;;;;;;;204.40;83.40;;;;;;;-1.45;57.66;99529.32;108309;1279;22561;-70
2022/03/28 02:53:16;;;;;;;198.30;80.90;;;;;;;-1.50;57.39;99528.98;108303;1279;24233;-73
2022/03/28 02:55:44;;;;;;;173.30;69.10;;;;;;;-1.54;57.72;99529.52;108295;1277;22555;-69
2022/03/28 02:58:11;;;;;;;176.40;69.10;;;;;;;-1.54;57.95;99530.70;108277;1279;22540;-70
2022/03/28 03:00:38;;;;;;;172.50;68.60;;;;;;;-1.54;59.14;99528.32;108310;1279;25315;-69
2022/03/28 03:03:05;;;;;;;169.10;65.20;;;;;;;-1.55;59.88;99527.63;108308;1279;22537;-70
2022/03/28 03:05:32;;;;;;;169.70;67.90;;;;;;;-1.58;60.13;99523.53;108272;1279;22552;-70
2022/03/28 03:07:59;;;;;;;160.80;64.80;;;;;;;-1.59;59.96;99519.77;108312;1279;22694;-71
2022/03/28 03:10:27;;;;;;;169.10;68.10;;;;;;;-1.60;60.14;99515.67;108304;1279;22613;-70
2022/03/28 03:12:53;;;;;;;163.90;67.60;;;;;;;-1.61;59.59;99512.26;108298;1279;22553;-71
2022/03/28 03:15:20;;;;;;;181.40;66.40;;;;;;;-1.61;59.64;99514.67;108289;1279;22549;-71
2022/03/28 03:17:48;;;;;;;171.20;67.80;;;;;;;-1.62;59.34;99513.65;108280;1279;22626;-70
2022/03/28 03:20:15;;;;;;;175.40;66.70;;;;;;;-1.62;59.07;99511.60;108335;1279;24436;-81
2022/03/28 03:22:43;;;;;;;165.60;68.00;;;;;;;-1.62;59.07;99509.72;108318;1279;22623;-71
2022/03/28 03:25:10;;;;;;;178.40;70.90;;;;;;;-1.61;58.91;99502.71;108321;1279;22632;-79
2022/03/28 03:27:38;;;;;;;184.90;72.40;;;;;;;-1.62;59.71;99499.47;108253;1278;22732;-70
2022/03/28 03:30:07;;;;;;;185.30;71.50;;;;;;;-1.62;59.15;99498.27;108029;1279;22718;-69
2022/03/28 03:32:35;;;;;;;174.20;69.90;;;;;;;-1.62;59.06;99496.57;107996;1279;22620;-70
2022/03/28 03:35:04;;;;;;;175.00;70.20;;;;;;;-1.58;59.10;99494.15;108008;1279;22534;-70
2022/03/28 03:37:31;;;;;;;171.70;67.50;;;;;;;-1.55;59.81;99495.69;107999;1279;22560;-69
2022/03/28 03:39:59;;;;;;;178.00;68.90;;;;;;;-1.54;60.98;99497.05;107997;1279;22545;-70
2022/03/28 03:42:26;;;;;;;191.30;73.50;;;;;;;-1.55;61.19;99498.08;108267;1279;23014;-70
2022/03/28 03:44:53;;;;;;;195.60;74.30;;;;;;;-1.58;61.02;99493.98;108021;1279;22572;-70
2022/03/28 03:47:20;;;;;;;191.60;75.40;;;;;;;-1.59;60.99;99489.88;108033;1279;22588;-70
2022/03/28 03:49:47;;;;;;;216.20;79.10;;;;;;;-1.59;60.60;99491.08;108027;1279;25507;-70
2022/03/28 03:52:14;;;;;;;192.50;74.10;;;;;;;-1.60;60.55;99492.62;108013;1279;22658;-70
2022/03/28 03:54:41;;;;;;;197.50;76.00;;;;;;;-1.63;60.21;99491.96;108043;1279;22549;-69
2022/03/28 03:57:08;;;;;;;194.00;73.10;;;;;;;-1.66;60.13;99490.41;108018;1279;22553;-70
2022/03/28 03:59:35;;;;;;;200.00;76.50;;;;;;;-1.70;59.89;99486.33;108387;1279;22551;-69
2022/03/28 04:02:03;;;;;;;200.50;74.30;;;;;;;-1.75;60.42;99485.31;108007;1279;27761;-69
2022/03/28 04:04:30;;;;;;;190.80;74.70;;;;;;;-1.77;60.45;99483.44;108027;1279;22706;-69
2022/03/28 04:06:57;;;;;;;202.20;72.90;;;;;;;-1.79;59.96;99481.73;108046;1279;22546;-69
2022/03/28 04:09:24;;;;;;;191.50;69.30;;;;;;;-1.76;60.43;99485.14;108055;1279;25294;-68
2022/03/28 04:11:52;;;;;;;173.90;68.30;;;;;;;-1.75;61.14;99484.46;108053;1279;22660;-68
2022/03/28 04:14:19;;;;;;;179.10;66.50;;;;;;;-1.76;62.15;99481.05;108033;1279;22553;-69
2022/03/28 04:16:46;;;;;;;188.50;67.10;;;;;;;-1.79;62.29;99480.03;108030;1279;22685;-68
2022/03/28 04:19:14;;;;;;;178.50;68.10;;;;;;;-1.81;62.20;99484.99;108045;1279;24283;-69
2022/03/28 04:21:41;;;;;;;187.90;68.90;;;;;;;-1.83;62.01;99484.31;108040;1279;22538;-71
2022/03/28 04:24:08;;;;;;;175.30;67.10;;;;;;;-1.85;62.05;99481.74;108020;1277;22560;-69
2022/03/28 04:26:35;;;;;;;190.40;70.80;;;;;;;-1.85;61.60;99485.85;108024;1279;25922;-71
2022/03/28 04:29:02;;;;;;;181.70;65.90;;;;;;;-1.86;61.28;99481.23;108032;1279;22532;-69
2022/03/28 04:31:29;;;;;;;201.00;76.10;;;;;;;-1.88;61.20;99478.17;107940;1279;23040;-70
2022/03/28 04:33:56;;;;;;;203.40;79.40;;;;;;;-1.89;61.21;99472.73;108021;1279;22540;-69
2022/03/28 04:36:24;;;;;;;167.60;71.30;;;;;;;-1.86;61.63;99473.38;108034;1279;23181;-69
2022/03/28 04:38:51;;;;;;;197.70;76.50;;;;;;;-1.84;62.95;99472.36;108036;1276;22563;-69
2022/03/28 04:41:18;;;;;;;235.20;100.70;;;;;;;-1.86;63.86;99471.67;108041;1279;22665;-84
2022/03/28 04:43:45;;;;;;;251.30;105.00;;;;;;;-1.90;63.90;99471.86;108026;1279;22538;-69
2022/03/28 04:46:12;;;;;;;242.80;103.90;;;;;;;-1.91;63.47;99475.27;108038;1279;22616;-69
2022/03/28 04:48:39;;;;;;;256.90;102.50;;;;;;;-1.91;63.30;99479.04;108013;1279;24267;-70
2022/03/28 04:51:08;;;;;;;236.20;96.10;;;;;;;-1.89;63.31;99480.23;108020;1279;23868;-69
2022/03/28 04:53:35;;;;;;;226.60;93.20;;;;;;;-1.87;63.43;99480.22;108041;1279;23947;-69
2022/03/28 04:56:02;;;;;;;235.90;93.20;;;;;;;-1.84;63.40;99480.04;108030;1279;22574;-69
2022/03/28 04:58:30;;;;;;;231.00;88.50;;;;;;;-1.80;63.18;99477.66;108013;1279;24910;-69
2022/03/28 05:00:57;;;;;;;205.10;87.30;;;;;;;-1.75;62.82;99477.80;107993;1279;22807;-69
2022/03/28 05:03:24;;;;;;;219.40;86.30;;;;;;;-1.67;62.75;99475.73;108003;1279;22694;-69
2022/03/28 05:05:51;;;;;;;197.30;79.60;;;;;;;-1.51;62.54;99474.15;108053;1279;24318;-69
2022/03/28 05:08:19;;;;;;;199.70;78.80;;;;;;;-1.35;63.26;99469.98;108051;1279;22600;-70
2022/03/28 05:10:46;;;;;;;204.10;76.30;;;;;;;-1.18;64.09;99468.54;108033;1279;25217;-70
2022/03/28 05:13:13;;;;;;;195.30;76.40;;;;;;;-1.02;64.52;99473.60;108006;1279;24276;-70
2022/03/28 05:15:40;;;;;;;213.40;76.60;;;;;;;-0.81;64.20;99477.40;108001;1279;22707;-70
2022/03/28 05:18:07;;;;;;;225.00;78.90;;;;;;;-0.53;64.17;99474.48;108042;1279;22544;-69
2022/03/28 05:20:34;;;;;;;228.80;85.50;;;;;;;-0.21;64.29;99470.98;108040;1279;22620;-70
2022/03/28 05:23:01;;;;;;;239.30;88.50;;;;;;;0.14;64.37;99470.48;108050;1279;22556;-70
2022/03/28 05:25:28;;;;;;;262.10;96.90;;;;;;;0.52;64.43;99472.64;108047;1278;22575;-71
2022/03/28 05:27:56;;;;;;;240.00;95.70;;;;;;;0.97;64.30;99469.17;107996;1279;22550;-70
2022/03/28 05:30:23;;;;;;;255.80;94.70;;;;;;;1.44;64.26;99467.46;108015;1279;24108;-70
2022/03/28 05:32:50;;;;;;;214.40;85.50;;;;;;;1.79;64.16;99470.69;108006;1278;22538;-70
2022/03/28 05:35:17;;;;;;;260.30;101.10;;;;;;;1.99;63.73;99472.23;108049;1279;22574;-71
2022/03/28 05:37:44;;;;;;;237.40;91.40;;;;;;;2.16;63.47;99471.25;108026;1278;22553;-71
2022/03/28 05:40:13;;;;;;;230.20;89.60;;;;;;;2.32;63.11;99467.85;108033;1279;22580;-71
2022/03/28 05:42:40;;;;;;;218.30;86.00;;;;;;;2.58;62.91;99468.90;107996;1279;22706;-71
2022/03/28 05:45:10;;;;;;;202.20;77.40;;;;;;;3.03;62.17;99469.19;108038;1279;22553;-71
2022/03/28 05:47:37;;;;;;;185.20;68.70;;;;;;;3.45;61.42;99465.99;108058;1279;22538;-71
2022/03/28 05:50:06;;;;;;;182.00;66.50;;;;;;;3.63;60.38;99462.14;107992;1279;22529;-70
2022/03/28 05:52:33;;;;;;;166.30;62.50;;;;;;;3.71;59.22;99459.20;108031;1279;22552;-71
2022/03/28 05:55:00;;;;;;;171.70;60.90;;;;;;;3.74;58.29;99460.67;108027;1279;22632;-70
2022/03/28 05:57:27;;;;;;;172.90;64.30;;;;;;;3.70;57.31;99453.36;108047;1278;23930;-72
2022/03/28 05:59:54;;;;;;;188.10;66.90;;;;;;;3.61;56.80;99456.68;108042;1279;24359;-71
2022/03/28 06:02:21;;;;;;;201.20;67.70;;;;;;;3.53;56.69;99454.45;108027;1279;22553;-71
2022/03/28 06:04:48;;;;;;;186.10;70.00;;;;;;;3.51;56.57;99458.80;107982;1279;24481;-70
2022/03/28 06:07:15;;;;;;;176.30;69.50;;;;;;;3.59;56.43;99452.92;107994;1279;22560;-71
2022/03/28 06:09:42;;;;;;;179.60;70.60;;;;;;;3.71;55.94;99452.13;108041;1279;22632;-73
2022/03/28 06:12:10;;;;;;;175.40;69.50;;;;;;;3.72;55.72;99450.54;108055;1279;22676;-70
2022/03/28 06:14:37;;;;;;;159.40;64.90;;;;;;;3.71;55.44;99447.81;108020;1279;22698;-70
2022/03/28 06:17:04;;;;;;;162.00;64.30;;;;;;;3.68;55.10;99443.56;108022;1279;22852;-70
2022/03/28 06:19:31;;;;;;;161.80;61.70;;;;;;;3.68;54.99;99443.06;108031;1279;24426;-70
2022/03/28 06:21:58;;;;;;;122.90;50.40;;;;;;;3.69;54.98;99440.97;108053;1279;22599;-71
2022/03/28 06:24:25;;;;;;;107.20;46.10;;;;;;;3.72;54.71;99439.17;108074;1279;22619;-71
2022/03/28 06:26:52;;;;;;;110.40;44.60;;;;;;;3.76;54.82;99435.63;108013;1279;22706;-70
2022/03/28 06:29:19;;;;;;;110.80;46.80;;;;;;;3.82;54.44;99434.29;108012;1279;22617;-70
2022/03/28 06:31:46;;;;;;;118.40;49.70;;;;;;;3.87;54.11;99432.59;108047;1279;27686;-70
2022/03/28 06:34:13;;;;;;;117.80;48.90;;;;;;;3.96;54.08;99428.73;108034;1279;22563;-70
2022/03/28 06:36:43;;;;;;;105.70;44.30;;;;;;;4.06;54.05;99431.42;108058;1279;22590;-73
2022/03/28 06:39:10;;;;;;;95.50;41.10;;;;;;;4.17;53.95;99431.45;108009;1279;22546;-71
2022/03/28 06:41:37;;;;;;;85.80;38.90;;;;;;;4.29;53.78;99429.77;107984;1279;22570;-70
2022/03/28 06:44:07;;;;;;;80.10;35.60;;;;;;;4.42;53.65;99426.48;108020;1279;22623;-71
2022/03/28 06:46:34;;;;;;;81.20;35.70;;;;;;;4.57;53.16;99420.37;108030;1279;22588;-71
2022/03/28 06:49:02;;;;;;;68.50;33.50;;;;;;;4.74;52.89;99414.00;108052;1279;22556;-73
2022/03/28 06:51:29;;;;;;;71.20;30.50;;;;;;;4.88;52.63;99408.56;107996;1279;22537;-71
2022/03/28 06:53:56;;;;;;;49.20;24.60;;;;;;;5.06;52.37;99407.86;107990;1279;22626;-70
2022/03/28 06:56:23;;;;;;;55.40;23.50;;;;;;;5.24;52.28;99404.02;108011;1279;24477;-71
2022/03/28 06:58:51;;;;;;;37.30;18.70;;;;;;;5.42;52.21;99404.84;108027;1279;22573;-70
2022/03/28 07:01:18;;;;;;;31.20;15.90;;;;;;;5.60;51.23;99407.33;108018;1279;22546;-69
2022/03/28 07:03:45;;;;;;;33.20;15.60;;;;;;;5.80;51.09;99400.66;108033;1279;22519;-73
2022/03/28 07:06:12;;;;;;;35.10;16.10;;;;;;;6.00;50.95;99400.86;107988;1279;22619;-70
2022/03/28 07:08:39;;;;;;;30.80;14.60;;;;;;;6.15;50.26;99395.48;107998;1279;22705;-69
2022/03/28 07:11:06;;;;;;;28.20;14.80;;;;;;;6.28;49.65;99394.84;108024;1279;26636;-69
2022/03/28 07:13:33;;;;;;;27.00;14.00;;;;;;;6.42;49.30;99391.73;108049;1278;22550;-70
2022/03/28 07:16:00;;;;;;;32.40;16.00;;;;;;;6.60;48.76;99387.63;108020;1279;22833;-73
2022/03/28 07:18:27;;;;;;;28.20;13.90;;;;;;;6.77;48.85;99386.80;108007;1279;24259;-71
2022/03/28 07:20:54;;;;;;;30.30;14.40;;;;;;;6.95;48.53;99386.30;108005;1279;22691;-74
2022/03/28 07:23:22;;;;;;;33.20;15.90;;;;;;;7.09;48.16;99375.88;108002;1279;22713;-71
2022/03/28 07:25:49;;;;;;;28.30;14.40;;;;;;;7.25;47.92;99374.89;108029;1279;22726;-70
2022/03/28 07:28:20;;;;;;;29.50;15.10;;;;;;;7.39;47.48;99371.05;108006;1279;22547;-70
2022/03/28 07:30:47;;;;;;;35.50;16.60;;;;;;;7.55;47.47;99367.45;108010;1279;22575;-70
2022/03/28 07:33:14;;;;;;;30.60;15.20;;;;;;;7.70;46.94;99365.76;108012;1279;23410;-71
2022/03/28 07:35:41;;;;;;;30.90;15.20;;;;;;;7.85;46.94;99361.81;107999;1279;22530;-70
2022/03/28 07:38:10;;;;;;;32.40;16.90;;;;;;;8.00;46.88;99360.66;108097;1279;22817;-71
2022/03/28 07:40:39;;;;;;;35.40;17.30;;;;;;;8.16;46.64;99361.73;108020;1279;22798;-71
2022/03/28 07:43:07;;;;;;;34.20;17.20;;;;;;;8.31;46.38;99355.32;108039;1279;22560;-70
2022/03/28 07:45:35;;;;;;;30.80;15.50;;;;;;;8.49;46.22;99351.94;108127;1279;22579;-71
2022/03/28 07:48:03;;;;;;;31.50;15.80;;;;;;;8.64;46.36;99348.45;108199;1279;23205;-72
2022/03/28 07:50:30;;;;;;;30.50;15.10;;;;;;;8.81;45.89;99344.54;108019;1279;22565;-71
2022/03/28 07:52:58;;;;;;;31.10;15.40;;;;;;;8.97;45.58;99341.37;108002;1279;22540;-71
2022/03/28 07:55:26;;;;;;;31.10;14.90;;;;;;;9.14;45.50;99339.33;108005;1279;22631;-71
2022/03/28 07:57:53;;;;;;;35.60;15.50;;;;;;;9.29;45.56;99334.05;108015;1279;22688;-70
2022/03/28 08:00:20;;;;;;;32.10;15.90;;;;;;;9.48;45.32;99332.09;108020;1279;22703;-70
2022/03/28 08:02:47;;;;;;;26.40;14.00;;;;;;;9.66;44.19;99327.89;108057;1279;22684;-70
2022/03/28 08:05:14;;;;;;;28.10;14.70;;;;;;;9.82;44.72;99328.63;108014;1279;24264;-69
2022/03/28 08:07:43;;;;;;;29.40;15.70;;;;;;;9.98;45.03;99326.27;107984;1279;23396;-75
2022/03/28 08:10:10;;;;;;;32.70;15.40;;;;;;;10.12;44.26;99318.55;108031;1279;22714;-71
2022/03/28 08:12:37;;;;;;;25.50;14.20;;;;;;;10.28;43.89;99314.24;107994;1279;22710;-70
2022/03/28 08:15:06;;;;;;;25.10;13.10;;;;;;;10.44;43.84;99311.29;108038;1279;22632;-70
2022/03/28 08:17:38;;;;;;;26.70;13.10;;;;;;;10.60;43.65;99304.34;108009;1279;22560;-68
2022/03/28 08:20:09;;;;;;;22.50;13.40;;;;;;;10.74;43.45;99302.70;107998;1279;22856;-70
2022/03/28 08:22:37;;;;;;;23.40;11.50;;;;;;;10.90;43.03;99296.40;108026;1279;22546;-70
2022/03/28 08:25:05;;;;;;;22.80;12.10;;;;;;;11.01;42.73;99291.27;108032;1279;22694;-74
2022/03/28 08:27:32;;;;;;;20.30;11.40;;;;;;;11.14;42.85;99287.52;107890;1279;22552;-69
2022/03/28 08:29:59;;;;;;;22.00;12.00;;;;;;;11.27;42.28;99279.80;108078;1279;22668;-70
2022/03/28 08:32:26;;;;;;;19.70;10.80;;;;;;;11.36;41.98;99277.17;108026;1279;22654;-75
2022/03/28 08:34:53;;;;;;;19.80;9.90;;;;;;;11.47;41.50;99271.53;108022;1279;22685;-70
2022/03/28 08:37:21;;;;;;;19.80;10.20;;;;;;;11.59;41.18;99270.44;108039;1279;22619;-70
2022/03/28 08:39:55;;;;;;;21.10;10.80;;;;;;;11.77;40.93;99271.48;108021;1279;22538;-70
2022/03/28 08:42:24;;;;;;;20.80;10.50;;;;;;;11.87;40.23;99262.17;108052;1279;22548;-76
2022/03/28 08:44:51;;;;;;;21.90;10.20;;;;;;;11.95;40.63;99254.48;107923;1280;22573;-71
2022/03/28 08:47:20;;;;;;;18.50;9.50;;;;;;;12.06;40.22;99255.91;108036;1279;22697;-70
2022/03/28 08:49:49;;;;;;;22.20;10.70;;;;;;;12.18;39.80;99247.65;108053;1279;22537;-74
2022/03/28 08:52:16;;;;;;;19.00;9.40;;;;;;;12.29;39.74;99241.02;107893;1280;22570;-73
2022/03/28 08:54:44;;;;;;;20.50;10.50;;;;;;;12.40;39.40;99239.83;108126;1279;22623;-73
2022/03/28 08:57:13;;;;;;;20.70;8.80;;;;;;;12.49;39.53;99236.10;108303;1279;22590;-73
2022/03/28 08:59:40;;;;;;;16.80;8.50;;;;;;;12.60;39.34;99232.96;108154;1279;25787;-73
2022/03/28 09:02:39;;;;;;;15.60;8.50;;;;;;;12.70;39.60;99231.10;108287;1279;22535;-72
2022/03/28 09:05:06;;;;;;;13.90;8.70;;;;;;;12.82;39.26;99229.63;108287;1279;22537;-72
2022/03/28 09:07:33;;;;;;;14.50;8.80;;;;;;;12.93;39.17;99228.06;108303;1279;22649;-72
2022/03/28 09:10:06;;;;;;;15.00;8.70;;;;;;;13.03;39.25;99222.98;108294;1279;22534;-73
2022/03/28 09:12:40;;;;;;;15.10;9.00;;;;;;;13.19;39.18;99221.08;108331;1279;22610;-76
2022/03/28 09:15:14;;;;;;;19.20;9.30;;;;;;;13.35;39.42;99222.30;108311;1279;25345;-72
2022/03/28 09:17:41;;;;;;;18.00;9.60;;;;;;;13.44;39.21;99222.36;108313;1279;22699;-72
2022/03/28 09:20:09;;;;;;;12.20;8.00;;;;;;;13.50;38.81;99220.02;108264;1279;22533;-72
2022/03/28 09:22:41;;;;;;;14.40;8.60;;;;;;;13.56;39.06;99212.64;108294;1279;22619;-73
2022/03/28 09:25:10;;;;;;;14.70;7.60;;;;;;;13.64;38.76;99209.44;108304;1279;22608;-72
2022/03/28 09:27:40;;;;;;;13.50;7.80;;;;;;;13.73;38.37;99211.61;108309;1279;22632;-72
2022/03/28 09:30:14;;;;;;;14.20;8.30;;;;;;;13.77;38.27;99208.39;108302;1279;22551;-72
2022/03/28 09:32:43;;;;;;;13.90;8.20;;;;;;;13.86;37.64;99207.94;108291;1279;22541;-72
2022/03/28 09:35:12;;;;;;;18.70;8.60;;;;;;;13.94;37.13;99204.09;108323;1279;23826;-74
2022/03/28 09:37:48;;;;;;;13.80;8.90;;;;;;;13.95;36.89;99201.92;108317;1279;22632;-72
2022/03/28 09:40:26;;;;;;;12.80;7.90;;;;;;;13.93;36.72;99195.39;108272;1279;22536;-78
2022/03/28 09:42:54;;;;;;;13.40;8.20;;;;;;;13.94;36.65;99193.21;108296;1279;23932;-72
2022/03/28 09:45:24;;;;;;;13.50;7.70;;;;;;;14.01;36.87;99188.52;108306;1279;24239;-73
2022/03/28 09:48:00;;;;;;;12.50;7.40;;;;;;;14.05;36.76;99179.26;108301;1279;22559;-72
2022/03/28 09:50:39;;;;;;;15.70;8.30;;;;;;;14.13;36.96;99179.03;108327;1279;23098;-70
2022/03/28 09:53:31;;;;;;;16.70;8.00;;;;;;;14.24;36.75;99171.80;108308;1279;22553;-72
2022/03/28 09:56:08;;;;;;;13.70;7.60;;;;;;;14.36;36.30;99169.54;108284;1279;25401;-71
2022/03/28 09:59:07;;;;;;;11.80;6.60;;;;;;;14.40;35.82;99167.91;108294;1279;22552;-71
2022/03/28 10:01:42;;;;;;;13.80;7.70;;;;;;;14.41;36.12;99163.94;108307;1279;22521;-71
2022/03/28 10:04:11;;;;;;;16.20;7.70;;;;;;;14.47;35.94;99154.42;108262;1279;22550;-71
2022/03/28 10:06:39;;;;;;;14.20;7.60;;;;;;;14.53;35.63;99148.14;108112;1279;22563;-73
2022/03/28 10:09:07;;;;;;;12.60;6.70;;;;;;;14.65;35.56;99150.80;108070;1279;22659;-73
2022/03/28 10:11:38;;;;;;;15.10;7.40;;;;;;;14.70;35.52;99150.29;108026;1279;22551;-74
2022/03/28 10:14:05;;;;;;;16.80;7.90;;;;;;;14.76;35.42;99144.76;108021;1279;22705;-71
2022/03/28 10:16:33;;;;;;;12.20;6.70;;;;;;;14.82;35.34;99142.73;107991;1279;22579;-70
2022/03/28 10:19:03;;;;;;;19.40;8.00;;;;;;;14.85;34.57;99137.92;108008;1279;22542;-71
2022/03/28 10:21:37;;;;;;;13.00;7.10;;;;;;;14.90;35.09;99133.80;107937;1282;22565;-71
2022/03/28 10:24:24;;;;;;;14.30;7.60;;;;;;;14.99;34.73;99126.85;108304;1279;22642;-71
2022/03/28 10:26:55;;;;;;;11.70;6.70;;;;;;;15.10;35.54;99126.54;108297;1279;22535;-71
2022/03/28 10:29:23;;;;;;;14.80;7.00;;;;;;;15.18;35.45;99120.34;108297;1279;24117;-71
2022/03/28 10:31:55;;;;;;;11.10;7.50;;;;;;;15.24;34.78;99116.69;108265;1279;22539;-71
2022/03/28 10:34:42;;;;;;;;;;;;;;;15.26;34.31;99105.65;108310;1279;22541;-71
2022/03/28 10:37:31;;;;;;;13.00;6.80;;;;;;;15.29;34.65;99098.59;108313;1279;22558;-71
2022/03/28 10:40:16;;;;;;;12.60;7.40;;;;;;;15.38;34.42;99095.92;108319;1279;22576;-70
2022/03/28 10:43:11;;;;;;;12.40;7.40;;;;;;;15.44;34.13;99090.63;108271;1279;22567;-71
2022/03/28 10:45:49;;;;;;;14.30;7.30;;;;;;;15.48;33.64;99087.31;108076;1279;22547;-71
2022/03/28 10:48:32;;;;;;;12.60;6.90;;;;;;;15.51;33.87;99079.14;108209;1279;22543;-71
2022/03/28 10:51:08;;;;;;;15.80;8.10;;;;;;;15.50;33.81;99073.63;108267;1279;22547;-70
2022/03/28 10:53:46;;;;;;;14.60;8.00;;;;;;;15.50;34.16;99063.94;108213;1279;22538;-73
2022/03/28 10:56:26;;;;;;;15.70;8.50;;;;;;;15.59;33.97;99065.34;108182;1279;22638;-70
2022/03/28 10:58:59;;;;;;;15.00;9.30;;;;;;;15.72;33.90;99066.95;108247;1279;24115;-71
2022/03/28 11:01:28;;;;;;;11.10;7.20;;;;;;;15.81;33.23;99057.70;108249;1281;26573;-70
2022/03/28 11:04:02;;;;;;;11.80;6.80;;;;;;;15.87;33.51;99052.77;108308;1279;25652;-71
2022/03/28 11:06:59;;;;;;;14.90;6.40;;;;;;;15.92;33.33;99043.44;108279;1280;22565;-70
2022/03/28 11:09:54;;;;;;;9.90;5.90;;;;;;;15.98;33.48;99041.53;108302;1279;22623;-71
2022/03/28 11:12:28;;;;;;;8.90;5.90;;;;;;;16.06;33.28;99040.14;108227;1279;23376;-70
2022/03/28 11:14:58;;;;;;;10.40;5.70;;;;;;;16.11;32.67;99028.14;108594;1280;22550;-70
2022/03/28 11:17:34;;;;;;;8.50;5.20;;;;;;;16.15;32.72;99028.88;108017;1281;23407;-70
2022/03/28 11:20:07;;;;;;;10.50;6.10;;;;;;;16.25;32.64;99029.80;108022;1281;22575;-71